Terminal Aerodrome Forecast
Issued by NWS Twin Cities, MN

Home | Current Version | Previous Version | Graphics & Text | Print | Product List | Glossary On
Versions: 1 2 3 4 5 6 7 8 9 10 11 12 13 14 15
000
FTUS43 KMPX 211400 AAA
TAFSTC
TAF AMD
KSTC 211451Z 2115/2212 16009KT 1/2SM FG OVC003
      TEMPO 2115/2118 1 1/2SM BR OVC005
     FM211800 15010KT 1 1/2SM BR OVC005
     FM220300 14011KT 3SM -DZ BR OVC004=

USA.gov is the U.S. government's official web portal to all federal, state and local government web resources and services.